Decoded Metar for LRSM (SATU MARE in ROMANIA) (IATA:SUJ) | Meteo·Mobile Aviation Weather
aviador You're here:

LRSM Decoded Metar

SATU MARE in ROMANIA
Report Time2018-08-21 12:00:00
UTC Time2018-08-21 12:11:12
Flight Rules vfr VFR
Wind010° at 05 kt
W.Decomp.*RWY 01: 5.0 kt HW 0.3 kt LCW
W.Rank010° ranks 34
Current wind is below 010° avg. (6.4)
Visibility9999 m
Phenomena:N/A
Clouds:N/A
Expected CloudBase > 8,000 ft AGL from Temp-Dew spread
CeilingNone
Temp33°C (ISA +19)
Dew Point13°C (30% RH)
Heat Index32.0°C
AAT32.2°C
QNH1016 hPa
Density Alt2,651 ft
Elevation407 ft
Report Wrong Elevation
Raw Report
METAR LRSM 211200Z 01005KT 300V080 CAVOK 33/13 Q1016=

Extra information for LRSM:More info

Metar Taf Metar & Taf Last 4 Metars F.Rules Stats Wind Profile Meteogram Temp Stats Airport Information Weather charts Add Link Nearby VenuesMetar ALERT Operation Metar Decoded Social comments